Time;durP1;ratioP1;P1;durP2;ratioP2;P2;SDS_P1;SDS_P2;PMS_P1;PMS_P2;Temp;Humidity;BMP_temperature;BMP_pressure;BME280_temperature;BME280_humidity;BME280_pressure;Samples;Min_cycle;Max_cycle;Signal;HPM_P1;HPM_P2
2023/10/27 00:02:19;;;;;;;;;;;;;;;12.96;98.34;98432.19;5014755;28;19921;-75
2023/10/27 00:04:45;;;;;;;;;;;;;;;13.12;97.11;98432.03;5013749;28;19959;-75
2023/10/27 00:07:10;;;;;;;;;;;;;;;13.17;96.26;98421.28;5014799;28;19914;-75
2023/10/27 00:09:37;;;;;;;;;;;;;;;12.87;100.00;98432.47;5020686;28;19971;-75
2023/10/27 00:12:02;;;;;;;;;;;;;;;13.01;99.69;98438.28;5030973;28;20738;-75
2023/10/27 00:14:28;;;;;;;;;;;;;;;12.94;100.00;98429.78;5014902;28;19914;-75
2023/10/27 00:16:54;;;;;;;;;;;;;;;12.78;100.00;98430.72;5013726;28;19914;-75
2023/10/27 00:19:19;;;;;;;;;;;;;;;12.89;100.00;98432.88;5014115;28;19917;-75
2023/10/27 00:21:44;;;;;;;;;;;;;;;12.81;100.00;98436.78;5033820;28;19921;-75
2023/10/27 00:24:10;;;;;;;;;;;;;;;12.57;100.00;98436.78;5033001;28;19920;-75
2023/10/27 00:26:35;;;;;;;;;;;;;;;12.44;100.00;98438.13;5034342;28;20067;-75
2023/10/27 00:29:00;;;;;;;;;;;;;;;12.75;100.00;98437.06;5032858;28;19963;-75
2023/10/27 00:31:26;;;;;;;;;;;;;;;12.76;100.00;98449.13;5034378;28;19933;-75
2023/10/27 00:33:51;;;;;;;;;;;;;;;12.41;100.00;98436.88;5030444;28;19920;-75
2023/10/27 00:36:17;;;;;;;;;;;;;;;12.59;100.00;98442.81;5028152;28;20003;-75
2023/10/27 00:38:45;;;;;;;;;;;;;;;12.84;100.00;98450.06;5014305;28;19913;-75
2023/10/27 00:41:10;;;;;;;;;;;;;;;13.06;100.00;98443.59;5014372;28;19917;-74
2023/10/27 00:43:36;;;;;;;;;;;;;;;12.84;100.00;98448.03;5014105;28;19979;-75
2023/10/27 00:46:01;;;;;;;;;;;;;;;12.20;100.00;98432.53;5020013;28;20009;-75
2023/10/27 00:48:28;;;;;;;;;;;;;;;12.49;100.00;98440.66;5033740;28;19925;-75
2023/10/27 00:50:53;;;;;;;;;;;;;;;12.41;100.00;98434.06;5025137;28;20305;-75
2023/10/27 00:53:20;;;;;;;;;;;;;;;12.54;100.00;98436.69;5014035;28;19929;-75
2023/10/27 00:55:45;;;;;;;;;;;;;;;12.83;100.00;98440.81;5014058;28;19917;-75
2023/10/27 00:58:12;;;;;;;;;;;;;;;13.02;100.00;98434.28;5013992;28;20344;-75
2023/10/27 01:00:37;;;;;;;;;;;;;;;13.03;99.73;98424.72;5013864;28;19913;-75
2023/10/27 01:03:04;;;;;;;;;;;;;;;13.10;98.96;98432.44;5013859;28;20316;-75
2023/10/27 01:05:29;;;;;;;;;;;;;;;13.28;97.59;98427.09;5020805;28;19949;-75
2023/10/27 01:07:55;;;;;;;;;;;;;;;13.19;96.54;98426.53;5027191;28;19956;-75
2023/10/27 01:10:20;;;;;;;;;;;;;;;13.25;96.94;98435.44;5033481;28;19913;-75
2023/10/27 01:12:48;;;;;;;;;;;;;;;13.20;96.35;98419.75;5033454;28;19966;-75
2023/10/27 01:15:13;;;;;;;;;;;;;;;13.22;96.48;98413.75;5031173;28;19913;-75
2023/10/27 01:17:38;;;;;;;;;;;;;;;12.96;97.10;98413.38;5031884;28;19917;-75
2023/10/27 01:20:04;;;;;;;;;;;;;;;12.93;97.06;98414.13;5033100;28;19913;-75
2023/10/27 01:22:29;;;;;;;;;;;;;;;13.02;96.86;98425.88;5033189;28;20316;-75
2023/10/27 01:24:55;;;;;;;;;;;;;;;12.88;97.33;98434.06;5028553;28;19964;-75
2023/10/27 01:27:20;;;;;;;;;;;;;;;13.16;95.93;98427.31;5031941;28;19917;-75
2023/10/27 01:29:46;;;;;;;;;;;;;;;12.35;98.17;98430.78;5031095;28;19913;-75
2023/10/27 01:32:11;;;;;;;;;;;;;;;12.33;100.00;98435.16;5031878;28;20392;-75
2023/10/27 01:34:36;;;;;;;;;;;;;;;12.61;99.47;98434.03;5031666;28;20019;-75
2023/10/27 01:37:01;;;;;;;;;;;;;;;12.90;97.39;98421.28;5031733;28;20415;-75
2023/10/27 01:39:27;;;;;;;;;;;;;;;12.79;97.32;98414.69;5020500;28;19917;-75
2023/10/27 01:41:52;;;;;;;;;;;;;;;12.86;97.68;98428.84;5013096;28;19921;-75
2023/10/27 01:44:17;;;;;;;;;;;;;;;12.98;96.54;98418.63;5031081;28;20385;-74
2023/10/27 01:46:43;;;;;;;;;;;;;;;13.10;95.92;98406.34;5026899;28;19917;-75
2023/10/27 01:49:08;;;;;;;;;;;;;;;13.11;95.30;98416.38;5032412;28;19932;-75
2023/10/27 01:51:35;;;;;;;;;;;;;;;13.19;95.27;98409.69;5031019;28;20492;-75
2023/10/27 01:54:00;;;;;;;;;;;;;;;13.25;95.19;98413.78;5030877;28;19924;-75
2023/10/27 01:56:25;;;;;;;;;;;;;;;13.31;94.98;98422.69;5012871;28;20001;-75
2023/10/27 01:58:51;;;;;;;;;;;;;;;13.27;94.43;98427.44;5011470;28;20459;-75
2023/10/27 02:01:17;;;;;;;;;;;;;;;13.33;94.00;98425.94;5011308;28;19921;-75
2023/10/27 02:03:43;;;;;;;;;;;;;;;13.29;93.71;98439.13;5027517;28;20019;-75
2023/10/27 02:06:08;;;;;;;;;;;;;;;13.20;94.70;98428.94;5032419;28;19959;-75
2023/10/27 02:08:38;;;;;;;;;;;;;;;12.51;99.77;98449.50;5032470;28;20344;-74
2023/10/27 02:11:04;;;;;;;;;;;;;;;12.71;99.93;98444.63;5025680;28;20368;-75
2023/10/27 02:13:29;;;;;;;;;;;;;;;12.19;100.00;98444.09;5012557;28;19924;-75
2023/10/27 02:15:55;;;;;;;;;;;;;;;12.55;100.00;98429.91;5012646;28;20384;-75
2023/10/27 02:18:20;;;;;;;;;;;;;;;12.84;100.00;98427.59;5012058;28;20329;-75
2023/10/27 02:20:48;;;;;;;;;;;;;;;12.87;100.00;98424.88;5019424;28;19921;-75
2023/10/27 02:23:17;;;;;;;;;;;;;;;12.64;100.00;98422.06;5032201;28;19917;-75
2023/10/27 02:25:42;;;;;;;;;;;;;;;12.94;99.40;98418.56;5030962;28;19917;-75
2023/10/27 02:28:08;;;;;;;;;;;;;;;13.05;98.75;98418.72;5032113;28;20437;-75
2023/10/27 02:30:33;;;;;;;;;;;;;;;13.16;97.96;98419.69;5016755;28;19917;-75
2023/10/27 02:32:58;;;;;;;;;;;;;;;13.17;97.77;98426.13;5032002;28;19913;-75
2023/10/27 02:35:25;;;;;;;;;;;;;;;13.19;97.07;98421.72;5030638;28;19964;-74
2023/10/27 02:37:50;;;;;;;;;;;;;;;13.12;97.18;98418.00;5030740;28;20007;-75
2023/10/27 02:40:16;;;;;;;;;;;;;;;13.23;97.19;98421.00;5029278;28;20595;-75
2023/10/27 02:42:41;;;;;;;;;;;;;;;13.17;96.77;98426.91;5031474;28;19924;-75
2023/10/27 02:45:07;;;;;;;;;;;;;;;12.99;98.30;98421.03;5031029;28;19921;-75
2023/10/27 02:47:33;;;;;;;;;;;;;;;13.02;98.79;98414.66;5031538;28;20307;-75
2023/10/27 02:49:58;;;;;;;;;;;;;;;13.14;98.24;98418.44;5031662;28;19920;-75
2023/10/27 02:52:24;;;;;;;;;;;;;;;13.13;98.07;98422.44;5031720;28;19987;-75
2023/10/27 02:54:49;;;;;;;;;;;;;;;13.16;98.07;98428.09;5031711;28;20355;-75
2023/10/27 02:57:14;;;;;;;;;;;;;;;13.05;98.48;98433.56;5031656;28;19913;-74
2023/10/27 02:59:39;;;;;;;;;;;;;;;13.07;98.75;98430.34;5028305;28;20299;-75
2023/10/27 03:02:05;;;;;;;;;;;;;;;12.35;100.00;98410.34;5011355;28;19926;-75
2023/10/27 03:04:31;;;;;;;;;;;;;;;12.58;100.00;98415.16;5011855;28;19924;-75
2023/10/27 03:06:56;;;;;;;;;;;;;;;12.72;100.00;98417.38;5011904;28;19914;-75
2023/10/27 03:09:21;;;;;;;;;;;;;;;12.90;100.00;98415.69;5010463;28;20008;-75
2023/10/27 03:11:47;;;;;;;;;;;;;;;12.90;100.00;98417.66;5011811;28;19940;-75
2023/10/27 03:14:12;;;;;;;;;;;;;;;12.55;100.00;98404.66;5011968;28;19921;-75
2023/10/27 03:16:37;;;;;;;;;;;;;;;12.12;100.00;98411.13;5014969;28;20418;-74
2023/10/27 03:19:02;;;;;;;;;;;;;;;12.11;100.00;98395.50;5021545;28;19917;-75
2023/10/27 03:21:28;;;;;;;;;;;;;;;11.94;100.00;98391.97;5010484;28;20388;-75
2023/10/27 03:23:53;;;;;;;;;;;;;;;11.95;100.00;98398.38;5011762;28;20318;-75
2023/10/27 03:26:18;;;;;;;;;;;;;;;12.31;100.00;98401.06;5011620;28;19932;-74
2023/10/27 03:28:43;;;;;;;;;;;;;;;12.60;100.00;98412.78;5011715;28;20018;-75
2023/10/27 03:31:12;;;;;;;;;;;;;;;12.81;100.00;98417.13;5011558;28;19913;-75
2023/10/27 03:33:38;;;;;;;;;;;;;;;12.83;100.00;98415.56;5015072;28;19919;-75
2023/10/27 03:36:03;;;;;;;;;;;;;;;12.58;100.00;98398.31;5025894;28;19917;-75
2023/10/27 03:38:28;;;;;;;;;;;;;;;12.54;100.00;98397.44;5011599;28;19917;-75
2023/10/27 03:40:54;;;;;;;;;;;;;;;12.71;100.00;98404.53;5011540;28;19918;-75
2023/10/27 03:43:19;;;;;;;;;;;;;;;12.58;100.00;98398.31;5026669;28;20385;-75
2023/10/27 03:45:44;;;;;;;;;;;;;;;12.81;100.00;98403.09;5010861;28;19920;-75
2023/10/27 03:48:10;;;;;;;;;;;;;;;12.62;100.00;98402.81;5010902;28;19918;-75
2023/10/27 03:50:36;;;;;;;;;;;;;;;12.66;100.00;98400.03;5010676;28;20233;-75
2023/10/27 03:53:02;;;;;;;;;;;;;;;12.86;100.00;98397.16;5011543;28;19914;-75
2023/10/27 03:55:27;;;;;;;;;;;;;;;12.37;100.00;98393.97;5014873;28;19928;-75
2023/10/27 03:57:54;;;;;;;;;;;;;;;12.55;100.00;98401.84;5015129;28;19917;-75
2023/10/27 04:00:20;;;;;;;;;;;;;;;12.70;100.00;98406.53;5030232;28;19917;-75
2023/10/27 04:02:46;;;;;;;;;;;;;;;12.80;100.00;98415.53;5015017;28;20312;-75
2023/10/27 04:05:11;;;;;;;;;;;;;;;12.80;100.00;98421.13;5021160;28;19924;-75
2023/10/27 04:07:36;;;;;;;;;;;;;;;12.58;100.00;98420.75;5015955;28;19913;-75
2023/10/27 04:10:02;;;;;;;;;;;;;;;12.24;100.00;98412.16;5035181;28;20372;-72
2023/10/27 04:12:27;;;;;;;;;;;;;;;12.17;100.00;98401.63;5021719;28;19922;-71
2023/10/27 04:14:52;;;;;;;;;;;;;;;12.24;100.00;98403.72;5026300;28;19927;-70
2023/10/27 04:17:18;;;;;;;;;;;;;;;12.53;100.00;98401.44;5033745;28;19920;-73
2023/10/27 04:19:43;;;;;;;;;;;;;;;12.62;100.00;98400.00;5033892;28;20041;-75
2023/10/27 04:22:08;;;;;;;;;;;;;;;12.46;100.00;98399.31;5034386;28;19917;-73
2023/10/27 04:24:34;;;;;;;;;;;;;;;12.16;100.00;98389.56;5027644;28;19917;-70
2023/10/27 04:26:59;;;;;;;;;;;;;;;12.18;100.00;98375.19;5029599;28;19971;-73
2023/10/27 04:29:25;;;;;;;;;;;;;;;12.40;100.00;98381.97;5014640;28;20019;-72
2023/10/27 04:31:50;;;;;;;;;;;;;;;12.55;100.00;98385.03;5014405;28;20327;-76
2023/10/27 04:34:15;;;;;;;;;;;;;;;12.68;99.46;98372.44;5013280;28;19961;-72
2023/10/27 04:36:41;;;;;;;;;;;;;;;12.76;98.77;98376.19;5048169;28;19921;-70
2023/10/27 04:39:06;;;;;;;;;;;;;;;12.81;98.70;98383.47;5033888;28;19971;-70
2023/10/27 04:41:32;;;;;;;;;;;;;;;12.82;98.12;98383.06;5033274;28;19913;-72
2023/10/27 04:43:57;;;;;;;;;;;;;;;12.89;97.19;98385.19;5033498;28;19917;-71
2023/10/27 04:46:23;;;;;;;;;;;;;;;12.83;97.71;98387.50;5033516;28;19963;-70
2023/10/27 04:48:48;;;;;;;;;;;;;;;12.78;97.14;98390.63;5033307;28;19980;-71
2023/10/27 04:51:13;;;;;;;;;;;;;;;12.82;97.34;98390.69;5033382;28;19927;-71
2023/10/27 04:53:39;;;;;;;;;;;;;;;12.82;97.28;98391.50;5032687;28;20434;-71
2023/10/27 04:56:04;;;;;;;;;;;;;;;12.74;97.47;98384.16;5033381;28;20804;-71
2023/10/27 04:58:30;;;;;;;;;;;;;;;12.33;100.00;98384.69;5033249;28;19920;-71
2023/10/27 05:00:55;;;;;;;;;;;;;;;12.01;100.00;98398.88;5032129;28;19936;-71
2023/10/27 05:03:20;;;;;;;;;;;;;;;12.17;100.00;98396.78;5032886;28;20408;-73
2023/10/27 05:05:45;;;;;;;;;;;;;;;12.31;100.00;98396.25;5032023;28;19952;-70
2023/10/27 05:08:11;;;;;;;;;;;;;;;12.40;100.00;98389.59;5016145;28;20373;-71
2023/10/27 05:10:36;;;;;;;;;;;;;;;12.55;100.00;98388.66;5031189;28;19913;-70
2023/10/27 05:13:03;;;;;;;;;;;;;;;12.71;99.80;98384.91;5025957;28;20357;-70
2023/10/27 05:15:28;;;;;;;;;;;;;;;12.70;99.26;98397.31;5041716;28;20000;-70
2023/10/27 05:17:53;;;;;;;;;;;;;;;12.67;99.18;98404.50;5026021;28;20012;-70
2023/10/27 05:20:19;;;;;;;;;;;;;;;12.73;98.92;98394.56;5026306;28;20389;-72
2023/10/27 05:22:44;;;;;;;;;;;;;;;12.90;97.67;98404.47;5018771;28;19921;-73
2023/10/27 05:25:10;;;;;;;;;;;;;;;12.92;97.38;98409.69;5021639;28;19917;-74
2023/10/27 05:27:35;;;;;;;;;;;;;;;12.72;98.54;98417.38;5026019;28;19921;-73
2023/10/27 05:30:01;;;;;;;;;;;;;;;12.89;98.25;98428.09;5031076;28;19960;-73
2023/10/27 05:32:26;;;;;;;;;;;;;;;12.96;97.99;98418.97;5031614;28;19921;-73
2023/10/27 05:34:51;;;;;;;;;;;;;;;12.87;99.62;98426.84;5028675;28;20000;-73
2023/10/27 05:37:17;;;;;;;;;;;;;;;12.71;100.00;98418.56;5017344;28;19924;-73
2023/10/27 05:39:42;;;;;;;;;;;;;;;12.91;100.00;98420.09;5031205;28;19913;-73
2023/10/27 05:42:08;;;;;;;;;;;;;;;12.94;100.00;98415.75;5017551;28;19923;-73
2023/10/27 05:44:34;;;;;;;;;;;;;;;12.51;100.00;98415.84;5019655;28;19927;-73
2023/10/27 05:47:01;;;;;;;;;;;;;;;12.85;100.00;98424.44;5028911;28;19996;-72
2023/10/27 05:49:26;;;;;;;;;;;;;;;13.17;100.00;98424.09;5030008;28;19925;-72
2023/10/27 05:51:51;;;;;;;;;;;;;;;13.23;99.91;98432.22;5032154;28;19928;-75
2023/10/27 05:54:17;;;;;;;;;;;;;;;13.23;100.00;98427.41;5032474;28;19913;-69
2023/10/27 05:56:42;;;;;;;;;;;;;;;13.22;99.66;98411.75;5024973;28;19989;-75
2023/10/27 05:59:08;;;;;;;;;;;;;;;13.29;100.00;98411.03;5024695;28;19925;-72
2023/10/27 06:01:34;;;;;;;;;;;;;;;13.58;99.83;98398.22;5028070;28;19917;-73
2023/10/27 06:03:59;;;;;;;;;;;;;;;13.69;99.41;98401.16;5021968;28;20366;-73
2023/10/27 06:06:25;;;;;;;;;;;;;;;13.77;99.32;98393.66;5015359;28;19917;-77
2023/10/27 06:08:50;;;;;;;;;;;;;;;13.74;99.04;98383.16;5034831;28;19917;-70
2023/10/27 06:11:16;;;;;;;;;;;;;;;13.71;99.04;98392.34;5025748;28;20345;-72
2023/10/27 06:13:41;;;;;;;;;;;;;;;13.60;100.00;98409.88;5027573;28;20311;-74
2023/10/27 06:16:07;;;;;;;;;;;;;;;13.90;99.80;98406.25;5026474;28;20320;-74
2023/10/27 06:18:33;;;;;;;;;;;;;;;14.11;98.03;98401.25;5025672;28;19917;-74
2023/10/27 06:20:58;;;;;;;;;;;;;;;14.14;98.73;98398.47;5022880;28;20428;-75
2023/10/27 06:23:24;;;;;;;;;;;;;;;14.12;97.98;98400.03;5016586;28;20308;-75
2023/10/27 06:25:50;;;;;;;;;;;;;;;14.25;99.24;98406.22;5025079;28;19912;-75
2023/10/27 06:28:15;;;;;;;;;;;;;;;14.60;98.38;98404.94;5028237;28;19982;-75
2023/10/27 06:30:40;;;;;;;;;;;;;;;14.34;98.03;98414.34;5028507;28;19986;-76
2023/10/27 06:33:06;;;;;;;;;;;;;;;14.43;98.36;98410.00;5027024;28;20023;-75
2023/10/27 06:35:32;;;;;;;;;;;;;;;14.79;98.12;98403.13;5030531;28;19967;-75
2023/10/27 06:37:57;;;;;;;;;;;;;;;14.85;96.72;98405.16;5029899;28;19948;-72
2023/10/27 06:40:22;;;;;;;;;;;;;;;15.13;96.09;98400.94;5021485;28;19917;-82
2023/10/27 06:42:48;;;;;;;;;;;;;;;15.24;95.00;98398.22;5016023;28;19917;-77
2023/10/27 06:45:13;;;;;;;;;;;;;;;15.41;94.81;98395.88;5019321;28;19999;-83
2023/10/27 06:47:39;;;;;;;;;;;;;;;15.50;93.32;98396.34;5032090;28;19924;-83
2023/10/27 06:50:05;;;;;;;;;;;;;;;15.43;91.42;98410.38;5025871;28;19972;-80
2023/10/27 06:52:31;;;;;;;;;;;;;;;15.26;93.91;98406.25;5018582;28;19917;-80
2023/10/27 06:54:56;;;;;;;;;;;;;;;15.40;93.27;98405.53;5022230;28;19921;-81
2023/10/27 06:57:22;;;;;;;;;;;;;;;15.49;92.73;98417.25;5022308;28;20388;-82
2023/10/27 06:59:47;;;;;;;;;;;;;;;15.38;93.33;98419.22;5011360;28;20277;-80
2023/10/27 07:02:12;;;;;;;;;;;;;;;15.54;92.89;98399.97;5012002;28;19929;-79
2023/10/27 07:04:37;;;;;;;;;;;;;;;15.62;93.77;98394.38;5026947;28;19922;-75
2023/10/27 07:07:05;;;;;;;;;;;;;;;15.57;92.75;98392.75;5013932;28;19959;-75
2023/10/27 07:09:30;;;;;;;;;;;;;;;15.73;92.37;98393.22;5014766;28;19931;-75
2023/10/27 07:11:56;;;;;;;;;;;;;;;15.62;92.05;98389.53;5011332;28;19922;-75
2023/10/27 07:14:21;;;;;;;;;;;;;;;15.96;91.34;98396.97;5012207;28;19918;-72
2023/10/27 07:16:51;;;;;;;;;;;;;;;16.04;90.22;98386.50;5015069;28;20356;-75
2023/10/27 07:19:17;;;;;;;;;;;;;;;15.76;90.29;98388.81;5027075;28;19956;-84
2023/10/27 07:21:42;;;;;;;;;;;;;;;15.61;91.68;98399.19;5030524;28;19984;-83
2023/10/27 07:24:08;;;;;;;;;;;;;;;15.38;93.44;98396.69;5031310;28;20386;-82
2023/10/27 07:26:33;;;;;;;;;;;;;;;15.22;95.25;98392.16;5031367;28;19913;-83
2023/10/27 07:28:59;;;;;;;;;;;;;;;15.55;94.51;98407.22;5031415;28;20307;-82
2023/10/27 07:31:24;;;;;;;;;;;;;;;15.76;94.08;98413.38;5035936;28;20021;-83
2023/10/27 07:33:50;;;;;;;;;;;;;;;15.86;92.82;98407.78;5035071;28;20300;-82
2023/10/27 07:36:15;;;;;;;;;;;;;;;15.92;93.44;98396.13;5034592;28;19924;-84
2023/10/27 07:38:41;;;;;;;;;;;;;;;16.12;92.37;98391.75;5034714;28;19921;-85
2023/10/27 07:41:06;;;;;;;;;;;;;;;16.06;91.79;98379.28;5021428;28;19944;-84
2023/10/27 07:43:31;;;;;;;;;;;;;;;16.14;91.49;98375.25;5033831;28;20392;-84
2023/10/27 07:45:57;;;;;;;;;;;;;;;16.26;91.08;98379.72;5028581;28;19968;-83
2023/10/27 07:48:22;;;;;;;;;;;;;;;16.27;90.19;98360.75;5034117;28;20316;-81
2023/10/27 07:50:48;;;;;;;;;;;;;;;16.32;90.04;98357.56;5030652;28;19918;-81
2023/10/27 07:53:13;;;;;;;;;;;;;;;16.41;90.11;98366.44;5024649;28;19921;-77
2023/10/27 07:55:38;;;;;;;;;;;;;;;16.41;89.31;98354.34;5015792;28;19925;-79
2023/10/27 07:58:04;;;;;;;;;;;;;;;16.52;88.87;98354.31;5026076;28;19921;-79
2023/10/27 08:00:30;;;;;;;;;;;;;;;16.67;88.41;98355.16;5019667;28;19917;-79
2023/10/27 08:02:56;;;;;;;;;;;;;;;16.77;87.66;98354.34;5023890;28;20016;-79
2023/10/27 08:05:22;;;;;;;;;;;;;;;16.84;86.74;98357.16;5028588;28;20020;-79
2023/10/27 08:07:47;;;;;;;;;;;;;;;16.93;85.89;98347.44;5027581;28;20020;-79
2023/10/27 08:10:12;;;;;;;;;;;;;;;16.87;86.88;98349.88;5015159;28;20447;-76
2023/10/27 08:12:37;;;;;;;;;;;;;;;16.89;86.68;98347.44;5025831;28;20482;-73
2023/10/27 08:15:06;;;;;;;;;;;;;;;16.96;86.66;98338.97;5020657;28;19948;-73
2023/10/27 08:17:33;;;;;;;;;;;;;;;16.93;87.18;98344.63;5015354;28;19924;-73
2023/10/27 08:19:58;;;;;;;;;;;;;;;16.88;87.52;98336.56;5026216;28;19936;-73
2023/10/27 08:22:23;;;;;;;;;;;;;;;17.02;87.67;98342.22;5030265;28;19925;-74
2023/10/27 08:24:48;;;;;;;;;;;;;;;17.00;87.28;98341.84;5016948;28;19929;-74
2023/10/27 08:27:14;;;;;;;;;;;;;;;17.01;87.75;98337.78;5012854;28;19987;-73
2023/10/27 08:29:39;;;;;;;;;;;;;;;17.14;86.91;98326.88;5021726;28;20000;-73
2023/10/27 08:32:05;;;;;;;;;;;;;;;17.16;86.69;98330.09;5021077;28;19917;-73
2023/10/27 08:34:31;;;;;;;;;;;;;;;17.06;87.02;98331.72;5029340;28;19924;-69
2023/10/27 08:36:57;;;;;;;;;;;;;;;17.24;86.84;98333.72;5028243;28;19927;-71
2023/10/27 08:39:24;;;;;;;;;;;;;;;17.38;86.58;98330.81;5018137;28;20327;-72
2023/10/27 08:41:49;;;;;;;;;;;;;;;17.70;86.06;98336.78;5019026;28;19924;-74
2023/10/27 08:44:15;;;;;;;;;;;;;;;18.03;84.90;98328.94;5011896;28;20398;-72
2023/10/27 08:46:41;;;;;;;;;;;;;;;18.34;82.10;98315.81;5011432;28;19928;-73
2023/10/27 08:49:08;;;;;;;;;;;;;;;18.60;80.94;98315.56;5021463;28;19929;-74
2023/10/27 08:51:34;;;;;;;;;;;;;;;18.75;78.21;98334.03;5022932;28;19921;-80
2023/10/27 08:53:59;;;;;;;;;;;;;;;18.88;78.45;98328.66;5020268;28;19980;-77
2023/10/27 08:56:24;;;;;;;;;;;;;;;18.98;76.33;98337.50;5012221;28;19926;-78
2023/10/27 08:58:51;;;;;;;;;;;;;;;19.07;76.67;98332.19;5011441;28;20344;-72
2023/10/27 09:01:17;;;;;;;;;;;;;;;19.13;75.27;98329.69;5012317;28;20719;-73
2023/10/27 09:04:04;;;;;;;;;;;;;;;18.87;75.40;98329.91;5015266;28;19929;-74
2023/10/27 09:06:29;;;;;;;;;;;;;;;18.78;75.42;98347.38;5010353;28;19921;-74
2023/10/27 09:08:54;;;;;;;;;;;;;;;18.55;75.76;98352.84;5019150;28;19921;-72
2023/10/27 09:11:19;;;;;;;;;;;;;;;18.59;76.55;98331.78;5025571;28;19917;-74
2023/10/27 09:13:45;;;;;;;;;;;;;;;18.74;75.48;98340.13;5011090;28;19960;-74
2023/10/27 09:16:23;;;;;;;;;;;;;;;18.82;75.07;98333.16;5010550;28;19913;-73
2023/10/27 09:18:51;;;;;;;;;;;;;;;19.07;74.00;98321.63;5024373;28;19921;-73
2023/10/27 09:21:28;;;;;;;;;;;;;;;19.27;73.30;98315.34;5020199;28;20233;-74
2023/10/27 09:23:53;;;;;;;;;;;;;;;19.59;72.34;98316.97;5025003;28;20298;-74
2023/10/27 09:26:19;;;;;;;;;;;;;;;19.23;71.63;98323.06;5022079;28;19917;-74
2023/10/27 09:28:44;;;;;;;;;;;;;;;19.47;71.61;98309.03;5027722;28;19977;-75
2023/10/27 09:31:09;;;;;;;;;;;;;;;19.52;71.33;98310.59;5020569;28;19963;-74
2023/10/27 09:33:34;;;;;;;;;;;;;;;19.27;70.69;98318.19;5026314;28;19921;-74
2023/10/27 09:36:02;;;;;;;;;;;;;;;19.43;70.89;98323.28;5027929;28;19975;-73
2023/10/27 09:38:28;;;;;;;;;;;;;;;19.61;71.00;98316.56;5030727;28;19921;-77
2023/10/27 09:40:56;;;;;;;;;;;;;;;19.75;70.61;98307.84;5030471;28;19939;-74
2023/10/27 09:43:23;;;;;;;;;;;;;;;19.73;70.13;98303.81;5022145;28;19928;-74
2023/10/27 09:45:55;;;;;;;;;;;;;;;19.89;69.81;98308.88;5019464;28;19917;-71
2023/10/27 09:48:28;;;;;;;;;;;;;;;19.80;69.22;98305.78;5024050;28;19925;-72
2023/10/27 09:51:01;;;;;;;;;;;;;;;19.64;69.11;98310.03;5020028;28;19917;-73
2023/10/27 09:53:28;;;;;;;;;;;;;;;19.87;68.28;98302.84;5019847;28;19925;-74
2023/10/27 09:55:54;;;;;;;;;;;;;;;19.96;68.55;98277.63;5021028;28;19927;-74
2023/10/27 09:58:20;;;;;;;;;;;;;;;20.30;67.95;98279.53;5024410;28;20413;-76
2023/10/27 10:00:46;;;;;;;;;;;;;;;20.18;68.07;98271.63;5023457;28;19921;-73
2023/10/27 10:03:11;;;;;;;;;;;;;;;20.10;68.11;98264.44;5023159;28;20361;-74
2023/10/27 10:06:06;;;;;;;;;;;;;;;20.17;69.71;98250.13;5016653;28;19918;-73
2023/10/27 10:08:32;;;;;;;;;;;;;;;20.36;67.97;98259.16;5003437;28;19929;-73
2023/10/27 10:11:10;;;;;;;;;;;;;;;20.50;68.17;98241.84;5020588;28;19943;-73
2023/10/27 10:13:36;;;;;;;;;;;;;;;20.50;68.08;98230.50;5014281;28;19921;-74
2023/10/27 10:16:03;;;;;;;;;;;;;;;20.62;68.16;98232.72;5017724;28;19921;-73
2023/10/27 10:18:35;;;;;;;;;;;;;;;20.66;67.30;98235.50;5020097;28;19923;-77
2023/10/27 10:21:01;;;;;;;;;;;;;;;20.85;66.03;98233.94;5021310;28;19975;-73
2023/10/27 10:23:39;;;;;;;;;;;;;;;20.87;65.63;98220.09;5022746;28;20367;-73
2023/10/27 10:26:05;;;;;;;;;;;;;;;20.86;65.56;98226.22;5020393;28;19932;-70
2023/10/27 10:28:33;;;;;;;;;;;;;;;20.95;64.23;98222.81;5023697;28;20566;-73
2023/10/27 10:31:07;;;;;;;;;;;;;;;21.13;63.66;98211.06;5008404;28;19932;-73
2023/10/27 10:33:44;;;;;;;;;;;;;;;20.94;63.39;98210.66;5018108;28;19921;-72
2023/10/27 10:36:22;;;;;;;;;;;;;;;20.97;64.41;98217.47;5017102;28;20398;-74
2023/10/27 10:38:50;;;;;;;;;;;;;;;21.17;64.71;98214.63;5023960;28;20403;-74
2023/10/27 10:41:16;;;;;;;;;;;;;;;21.39;64.06;98215.00;5015492;28;19917;-74
2023/10/27 10:43:42;;;;;;;;;;;;;;;21.43;64.24;98212.09;5029107;28;20320;-74
2023/10/27 10:46:10;;;;;;;;;;;;;;;21.38;64.63;98219.09;5021520;28;19917;-74
2023/10/27 10:48:40;;;;;;;;;;;;;;;21.11;63.62;98220.03;5022253;28;19925;-74
2023/10/27 10:51:16;;;;;;;;;;;;;;;20.82;64.19;98223.44;5016147;28;20406;-73
2023/10/27 10:53:42;;;;;;;;;;;;;;;21.17;63.16;98221.13;5020660;28;19921;-74
2023/10/27 10:56:07;;;;;;;;;;;;;;;20.96;63.91;98215.88;5023619;28;19967;-73
2023/10/27 10:58:36;;;;;;;;;;;;;;;21.02;64.21;98214.16;5018757;28;19944;-74
2023/10/27 11:01:05;;;;;;;;;;;;;;;21.13;64.73;98206.22;5017892;28;20004;-74
2023/10/27 11:03:34;;;;;;;;;;;;;;;21.27;64.28;98218.50;5021551;28;20511;-74
2023/10/27 11:06:05;;;;;;;;;;;;;;;21.17;61.97;98226.81;5022825;28;20024;-74
2023/10/27 11:08:37;;;;;;;;;;;;;;;20.79;63.52;98229.16;5021208;28;19936;-74
2023/10/27 11:11:09;;;;;;;;;;;;;;;21.22;63.81;98221.84;5019011;28;19921;-74
2023/10/27 11:13:45;;;;;;;;;;;;;;;20.92;62.61;98233.00;5021975;28;19983;-73
2023/10/27 11:16:14;;;;;;;;;;;;;;;20.75;63.25;98238.56;5026863;28;19945;-74
2023/10/27 11:18:40;;;;;;;;;;;;;;;20.92;62.67;98237.91;5026991;28;19924;-74
2023/10/27 11:21:05;;;;;;;;;;;;;;;20.86;63.92;98238.38;5017172;28;20436;-74
2023/10/27 11:23:31;;;;;;;;;;;;;;;20.90;63.44;98236.28;5015844;28;19922;-74
2023/10/27 11:26:04;;;;;;;;;;;;;;;20.80;63.59;98236.44;5013704;28;19983;-73
2023/10/27 11:28:29;;;;;;;;;;;;;;;20.99;62.61;98232.06;5021932;28;19963;-74
2023/10/27 11:31:07;;;;;;;;;;;;;;;21.10;62.92;98231.84;5038543;28;19996;-73
2023/10/27 11:33:33;;;;;;;;;;;;;;;21.09;62.42;98230.25;5024746;28;19921;-75
2023/10/27 11:35:59;;;;;;;;;;;;;;;21.03;62.07;98227.13;5009666;28;19921;-74
2023/10/27 11:38:31;;;;;;;;;;;;;;;21.24;61.90;98220.19;5015668;28;20284;-75
2023/10/27 11:41:08;;;;;;;;;;;;;;;21.57;61.49;98208.09;5025873;28;19921;-75
2023/10/27 11:43:33;;;;;;;;;;;;;;;21.74;60.77;98206.94;5018371;28;19925;-75
2023/10/27 11:46:07;;;;;;;;;;;;;;;21.90;60.07;98196.81;5022176;28;19921;-75
2023/10/27 11:48:32;;;;;;;;;;;;;;;22.08;59.45;98199.22;5010379;28;19922;-74
2023/10/27 11:50:57;;;;;;;;;;;;;;;22.22;58.37;98195.22;5018352;28;19927;-75
2023/10/27 11:53:23;;;;;;;;;;;;;;;22.04;59.30;98192.00;5018833;28;20359;-75
2023/10/27 11:55:48;;;;;;;;;;;;;;;22.06;59.35;98186.66;5014303;28;20016;-76
2023/10/27 11:58:14;;;;;;;;;;;;;;;22.13;59.00;98192.97;5014275;28;20394;-70
2023/10/27 12:00:39;;;;;;;;;;;;;;;22.20;58.36;98196.91;5012896;28;19961;-75
2023/10/27 12:03:04;;;;;;;;;;;;;;;22.23;58.01;98196.81;5014974;28;19960;-77
2023/10/27 12:05:31;;;;;;;;;;;;;;;22.37;57.75;98183.44;5024883;28;19921;-77
2023/10/27 12:07:56;;;;;;;;;;;;;;;22.46;57.83;98180.78;5010903;28;19917;-75
2023/10/27 12:10:21;;;;;;;;;;;;;;;22.38;58.21;98168.75;5010613;28;19928;-73
2023/10/27 12:12:47;;;;;;;;;;;;;;;22.37;57.76;98172.06;5023494;28;19917;-72
2023/10/27 12:15:14;;;;;;;;;;;;;;;22.53;57.53;98174.09;5025745;28;19925;-72
2023/10/27 12:17:40;;;;;;;;;;;;;;;22.56;57.54;98174.03;5027160;28;19918;-72
2023/10/27 12:20:06;;;;;;;;;;;;;;;22.15;58.07;98158.38;5013816;28;20393;-69
2023/10/27 12:22:32;;;;;;;;;;;;;;;21.93;58.42;98139.00;5010712;28;19921;-67
2023/10/27 12:24:57;;;;;;;;;;;;;;;22.16;58.71;98142.88;5026512;28;19954;-66
2023/10/27 12:27:23;;;;;;;;;;;;;;;22.01;58.69;98142.44;5020030;28;20404;-66
2023/10/27 12:29:48;;;;;;;;;;;;;;;21.90;58.73;98137.03;5030129;28;20388;-67
2023/10/27 12:32:13;;;;;;;;;;;;;;;22.02;58.48;98127.78;5025606;28;20462;-68
2023/10/27 12:34:38;;;;;;;;;;;;;;;21.82;58.84;98115.69;5019423;28;19922;-67
2023/10/27 12:37:05;;;;;;;;;;;;;;;21.37;60.75;98117.16;5018945;28;20415;-67
2023/10/27 12:39:30;;;;;;;;;;;;;;;21.73;61.03;98117.13;5018847;28;19917;-69